sensor_id;sensor_type;location;lat;lon;timestamp;pressure;altitude;pressure_sealevel;temperature;humidity
9335;BME280;4706;41.844;26.082;2023-12-04T00:01:50;101178.28;;;12.66;82.53
9335;BME280;4706;41.844;26.082;2023-12-04T00:04:15;101181.75;;;12.71;81.92
9335;BME280;4706;41.844;26.082;2023-12-04T00:06:41;101175.19;;;12.67;82.36
9335;BME280;4706;41.844;26.082;2023-12-04T00:09:07;101164.47;;;12.66;82.09
9335;BME280;4706;41.844;26.082;2023-12-04T00:11:32;101178.59;;;12.64;82.61
9335;BME280;4706;41.844;26.082;2023-12-04T00:13:59;101186.66;;;12.60;82.68
9335;BME280;4706;41.844;26.082;2023-12-04T00:16:24;101190.94;;;12.67;83.49
9335;BME280;4706;41.844;26.082;2023-12-04T00:18:50;101181.41;;;12.59;82.82
9335;BME280;4706;41.844;26.082;2023-12-04T00:21:16;101192.22;;;12.74;83.28
9335;BME280;4706;41.844;26.082;2023-12-04T00:23:41;101183.44;;;12.72;82.09
9335;BME280;4706;41.844;26.082;2023-12-04T00:26:07;101198.09;;;12.86;81.83
9335;BME280;4706;41.844;26.082;2023-12-04T00:28:35;101196.22;;;12.82;82.14
9335;BME280;4706;41.844;26.082;2023-12-04T00:31:01;101222.97;;;12.86;82.58
9335;BME280;4706;41.844;26.082;2023-12-04T00:33:27;101218.47;;;12.91;83.13
9335;BME280;4706;41.844;26.082;2023-12-04T00:35:53;101230.94;;;12.88;82.30
9335;BME280;4706;41.844;26.082;2023-12-04T00:38:18;101249.31;;;12.79;83.12
9335;BME280;4706;41.844;26.082;2023-12-04T00:40:44;101259.44;;;12.83;83.21
9335;BME280;4706;41.844;26.082;2023-12-04T00:43:10;101242.50;;;12.90;83.61
9335;BME280;4706;41.844;26.082;2023-12-04T00:45:35;101230.41;;;12.86;83.54
9335;BME280;4706;41.844;26.082;2023-12-04T00:48:02;101231.63;;;12.80;84.14
9335;BME280;4706;41.844;26.082;2023-12-04T00:50:27;101234.28;;;12.85;83.94
9335;BME280;4706;41.844;26.082;2023-12-04T00:52:53;101244.13;;;12.91;84.25
9335;BME280;4706;41.844;26.082;2023-12-04T00:55:19;101254.97;;;12.87;84.40
9335;BME280;4706;41.844;26.082;2023-12-04T00:57:45;101268.22;;;12.85;84.61
9335;BME280;4706;41.844;26.082;2023-12-04T01:00:11;101257.41;;;12.70;84.93
9335;BME280;4706;41.844;26.082;2023-12-04T01:02:43;101250.19;;;12.74;85.14
9335;BME280;4706;41.844;26.082;2023-12-04T01:05:08;101258.22;;;12.71;84.73
9335;BME280;4706;41.844;26.082;2023-12-04T01:07:34;101276.00;;;12.64;85.02
9335;BME280;4706;41.844;26.082;2023-12-04T01:10:00;101262.56;;;12.58;85.65
9335;BME280;4706;41.844;26.082;2023-12-04T01:12:26;101262.69;;;12.48;86.25
9335;BME280;4706;41.844;26.082;2023-12-04T01:14:52;101244.88;;;12.40;85.65
9335;BME280;4706;41.844;26.082;2023-12-04T01:17:17;101271.13;;;12.37;85.67
9335;BME280;4706;41.844;26.082;2023-12-04T01:19:43;101277.22;;;12.34;87.36
9335;BME280;4706;41.844;26.082;2023-12-04T01:22:09;101271.13;;;12.37;87.68
9335;BME280;4706;41.844;26.082;2023-12-04T01:24:34;101256.72;;;12.40;87.09
9335;BME280;4706;41.844;26.082;2023-12-04T01:27:00;101245.03;;;12.30;87.49
9335;BME280;4706;41.844;26.082;2023-12-04T01:29:25;101263.78;;;12.28;87.26
9335;BME280;4706;41.844;26.082;2023-12-04T01:31:51;101248.88;;;12.29;86.57
9335;BME280;4706;41.844;26.082;2023-12-04T01:34:17;101256.28;;;12.09;85.41
9335;BME280;4706;41.844;26.082;2023-12-04T01:36:42;101272.84;;;12.09;84.54
9335;BME280;4706;41.844;26.082;2023-12-04T01:39:08;101282.47;;;11.83;84.78
9335;BME280;4706;41.844;26.082;2023-12-04T01:41:33;101284.41;;;11.82;85.23
9335;BME280;4706;41.844;26.082;2023-12-04T01:43:59;101297.00;;;11.64;84.66
9335;BME280;4706;41.844;26.082;2023-12-04T01:46:25;101308.34;;;11.58;86.24
9335;BME280;4706;41.844;26.082;2023-12-04T01:48:51;101296.00;;;11.50;86.32
9335;BME280;4706;41.844;26.082;2023-12-04T01:51:19;101305.81;;;11.61;84.85
9335;BME280;4706;41.844;26.082;2023-12-04T01:53:47;101313.59;;;11.59;84.49
9335;BME280;4706;41.844;26.082;2023-12-04T01:56:14;101324.38;;;11.51;86.71
9335;BME280;4706;41.844;26.082;2023-12-04T01:58:40;101323.91;;;11.43;85.89
9335;BME280;4706;41.844;26.082;2023-12-04T02:01:06;101316.22;;;11.40;84.88
9335;BME280;4706;41.844;26.082;2023-12-04T02:03:33;101293.44;;;11.30;86.01
9335;BME280;4706;41.844;26.082;2023-12-04T02:06:02;101301.50;;;11.21;87.65
9335;BME280;4706;41.844;26.082;2023-12-04T02:08:30;101303.41;;;11.26;88.03
9335;BME280;4706;41.844;26.082;2023-12-04T02:10:56;101303.59;;;11.34;87.80
9335;BME280;4706;41.844;26.082;2023-12-04T02:13:22;101292.00;;;11.37;87.91
9335;BME280;4706;41.844;26.082;2023-12-04T02:15:49;101292.25;;;11.41;87.73
9335;BME280;4706;41.844;26.082;2023-12-04T02:18:19;101297.06;;;11.54;87.21
9335;BME280;4706;41.844;26.082;2023-12-04T02:20:45;101303.38;;;11.60;86.81
9335;BME280;4706;41.844;26.082;2023-12-04T02:23:11;101306.94;;;11.60;86.45
9335;BME280;4706;41.844;26.082;2023-12-04T02:25:37;101315.50;;;11.59;86.03
9335;BME280;4706;41.844;26.082;2023-12-04T02:28:07;101325.38;;;11.65;85.68
9335;BME280;4706;41.844;26.082;2023-12-04T02:30:37;101346.66;;;11.59;85.05
9335;BME280;4706;41.844;26.082;2023-12-04T02:33:05;101357.13;;;11.57;84.08
9335;BME280;4706;41.844;26.082;2023-12-04T02:35:33;101369.94;;;11.38;84.50
9335;BME280;4706;41.844;26.082;2023-12-04T02:38:02;101356.25;;;11.28;83.67
9335;BME280;4706;41.844;26.082;2023-12-04T02:40:28;101363.69;;;11.27;84.10
9335;BME280;4706;41.844;26.082;2023-12-04T02:42:54;101353.13;;;11.00;85.71
9335;BME280;4706;41.844;26.082;2023-12-04T02:45:20;101353.94;;;11.01;86.22
9335;BME280;4706;41.844;26.082;2023-12-04T02:47:46;101359.50;;;10.90;85.68
9335;BME280;4706;41.844;26.082;2023-12-04T02:50:17;101370.50;;;10.90;85.10
9335;BME280;4706;41.844;26.082;2023-12-04T02:52:43;101393.31;;;11.01;84.07
9335;BME280;4706;41.844;26.082;2023-12-04T02:55:09;101379.53;;;11.01;84.89
9335;BME280;4706;41.844;26.082;2023-12-04T02:57:34;101382.53;;;11.05;84.36
9335;BME280;4706;41.844;26.082;2023-12-04T03:00:00;101371.53;;;11.05;83.96
9335;BME280;4706;41.844;26.082;2023-12-04T03:02:25;101358.59;;;11.05;83.99
9335;BME280;4706;41.844;26.082;2023-12-04T03:04:51;101361.69;;;10.99;83.34
9335;BME280;4706;41.844;26.082;2023-12-04T03:07:16;101370.19;;;10.97;82.97
9335;BME280;4706;41.844;26.082;2023-12-04T03:09:45;101385.03;;;11.06;82.99
9335;BME280;4706;41.844;26.082;2023-12-04T03:12:11;101376.47;;;11.08;83.00
9335;BME280;4706;41.844;26.082;2023-12-04T03:14:36;101392.44;;;11.11;82.56
9335;BME280;4706;41.844;26.082;2023-12-04T03:17:02;101387.84;;;10.96;83.66
9335;BME280;4706;41.844;26.082;2023-12-04T03:19:27;101403.78;;;10.94;84.22
9335;BME280;4706;41.844;26.082;2023-12-04T03:21:53;101403.53;;;10.96;83.88
9335;BME280;4706;41.844;26.082;2023-12-04T03:24:18;101407.63;;;10.98;84.18
9335;BME280;4706;41.844;26.082;2023-12-04T03:26:44;101415.66;;;10.94;83.72
9335;BME280;4706;41.844;26.082;2023-12-04T03:29:09;101414.03;;;10.88;83.94
9335;BME280;4706;41.844;26.082;2023-12-04T03:31:35;101418.16;;;10.91;83.83
9335;BME280;4706;41.844;26.082;2023-12-04T03:34:01;101423.09;;;10.89;84.86
9335;BME280;4706;41.844;26.082;2023-12-04T03:36:28;101411.00;;;10.85;84.73
9335;BME280;4706;41.844;26.082;2023-12-04T03:38:53;101408.56;;;10.83;84.64
9335;BME280;4706;41.844;26.082;2023-12-04T03:41:19;101417.91;;;10.77;82.85
9335;BME280;4706;41.844;26.082;2023-12-04T03:43:44;101414.31;;;10.82;83.13
9335;BME280;4706;41.844;26.082;2023-12-04T03:46:10;101402.25;;;10.73;82.74
9335;BME280;4706;41.844;26.082;2023-12-04T03:48:35;101390.75;;;10.55;82.29
9335;BME280;4706;41.844;26.082;2023-12-04T03:51:01;101418.50;;;10.64;81.56
9335;BME280;4706;41.844;26.082;2023-12-04T03:53:27;101413.59;;;10.61;81.11
9335;BME280;4706;41.844;26.082;2023-12-04T03:55:53;101422.63;;;10.66;80.48
9335;BME280;4706;41.844;26.082;2023-12-04T03:58:21;101434.47;;;10.67;80.85
9335;BME280;4706;41.844;26.082;2023-12-04T04:00:47;101437.28;;;10.47;80.93
9335;BME280;4706;41.844;26.082;2023-12-04T04:03:12;101422.44;;;10.37;80.57
9335;BME280;4706;41.844;26.082;2023-12-04T04:05:38;101445.25;;;10.48;80.67
9335;BME280;4706;41.844;26.082;2023-12-04T04:08:04;101442.22;;;10.44;80.43
9335;BME280;4706;41.844;26.082;2023-12-04T04:10:33;101450.22;;;10.36;79.89
9335;BME280;4706;41.844;26.082;2023-12-04T04:12:59;101449.13;;;10.37;80.65
9335;BME280;4706;41.844;26.082;2023-12-04T04:15:25;101463.69;;;10.42;80.24
9335;BME280;4706;41.844;26.082;2023-12-04T04:17:51;101459.56;;;10.40;80.07
9335;BME280;4706;41.844;26.082;2023-12-04T04:20:17;101459.00;;;10.38;79.64
9335;BME280;4706;41.844;26.082;2023-12-04T04:22:43;101460.13;;;10.32;79.53
9335;BME280;4706;41.844;26.082;2023-12-04T04:25:10;101460.41;;;10.25;80.14
9335;BME280;4706;41.844;26.082;2023-12-04T04:27:35;101461.19;;;10.15;79.86
9335;BME280;4706;41.844;26.082;2023-12-04T04:30:02;101462.03;;;10.11;80.01
9335;BME280;4706;41.844;26.082;2023-12-04T04:32:27;101446.13;;;9.97;79.87
9335;BME280;4706;41.844;26.082;2023-12-04T04:34:53;101476.88;;;10.15;79.44
9335;BME280;4706;41.844;26.082;2023-12-04T04:37:22;101476.06;;;10.14;79.61
9335;BME280;4706;41.844;26.082;2023-12-04T04:39:47;101495.88;;;10.16;80.07
9335;BME280;4706;41.844;26.082;2023-12-04T04:42:14;101496.13;;;10.10;80.28
9335;BME280;4706;41.844;26.082;2023-12-04T04:44:40;101496.41;;;9.98;80.50
9335;BME280;4706;41.844;26.082;2023-12-04T04:47:05;101498.59;;;10.01;81.10
9335;BME280;4706;41.844;26.082;2023-12-04T04:49:31;101508.50;;;10.12;80.77
9335;BME280;4706;41.844;26.082;2023-12-04T04:51:56;101507.38;;;10.18;80.25
9335;BME280;4706;41.844;26.082;2023-12-04T04:54:22;101505.19;;;10.15;80.86
9335;BME280;4706;41.844;26.082;2023-12-04T04:56:48;101514.84;;;10.28;80.39
9335;BME280;4706;41.844;26.082;2023-12-04T04:59:14;101515.97;;;10.27;80.14
9335;BME280;4706;41.844;26.082;2023-12-04T05:01:39;101522.00;;;10.29;79.52
9335;BME280;4706;41.844;26.082;2023-12-04T05:04:05;101524.97;;;10.22;79.57
9335;BME280;4706;41.844;26.082;2023-12-04T05:06:30;101518.13;;;10.10;80.44
9335;BME280;4706;41.844;26.082;2023-12-04T05:08:56;101524.19;;;10.12;81.48
9335;BME280;4706;41.844;26.082;2023-12-04T05:11:23;101537.06;;;10.11;81.62
9335;BME280;4706;41.844;26.082;2023-12-04T05:13:49;101520.59;;;10.01;81.89
9335;BME280;4706;41.844;26.082;2023-12-04T05:16:14;101530.75;;;10.11;82.24
9335;BME280;4706;41.844;26.082;2023-12-04T05:18:41;101522.22;;;10.07;81.71
9335;BME280;4706;41.844;26.082;2023-12-04T05:21:10;101542.06;;;10.19;81.07
9335;BME280;4706;41.844;26.082;2023-12-04T05:23:36;101542.84;;;10.15;81.47
9335;BME280;4706;41.844;26.082;2023-12-04T05:26:03;101551.38;;;10.13;81.87
9335;BME280;4706;41.844;26.082;2023-12-04T05:28:28;101548.34;;;10.10;79.81
9335;BME280;4706;41.844;26.082;2023-12-04T05:30:54;101561.53;;;10.03;79.55
9335;BME280;4706;41.844;26.082;2023-12-04T05:33:19;101554.13;;;10.03;80.74
9335;BME280;4706;41.844;26.082;2023-12-04T05:35:47;101559.34;;;10.05;82.59
9335;BME280;4706;41.844;26.082;2023-12-04T05:38:14;101535.97;;;9.82;82.41
9335;BME280;4706;41.844;26.082;2023-12-04T05:40:39;101575.81;;;9.94;81.69
9335;BME280;4706;41.844;26.082;2023-12-04T05:43:05;101582.97;;;9.90;82.05
9335;BME280;4706;41.844;26.082;2023-12-04T05:45:30;101577.19;;;9.92;82.15
9335;BME280;4706;41.844;26.082;2023-12-04T05:47:56;101587.34;;;9.96;81.37
9335;BME280;4706;41.844;26.082;2023-12-04T05:50:21;101588.47;;;9.90;82.83
9335;BME280;4706;41.844;26.082;2023-12-04T05:52:47;101581.00;;;9.76;82.87
9335;BME280;4706;41.844;26.082;2023-12-04T05:55:12;101588.72;;;9.89;82.47
9335;BME280;4706;41.844;26.082;2023-12-04T05:57:41;101590.94;;;9.92;82.87
9335;BME280;4706;41.844;26.082;2023-12-04T06:00:08;101591.22;;;9.95;82.99
9335;BME280;4706;41.844;26.082;2023-12-04T06:02:44;101593.97;;;9.90;81.67
9335;BME280;4706;41.844;26.082;2023-12-04T06:05:10;101596.72;;;9.95;82.51
9335;BME280;4706;41.844;26.082;2023-12-04T06:07:37;101595.59;;;9.96;81.84
9335;BME280;4706;41.844;26.082;2023-12-04T06:10:03;101590.09;;;9.96;81.65
9335;BME280;4706;41.844;26.082;2023-12-04T06:12:31;101604.16;;;10.05;81.73
9335;BME280;4706;41.844;26.082;2023-12-04T06:14:57;101600.59;;;10.10;81.58
9335;BME280;4706;41.844;26.082;2023-12-04T06:17:24;101599.16;;;9.92;80.32
9335;BME280;4706;41.844;26.082;2023-12-04T06:19:50;101621.72;;;9.94;79.94
9335;BME280;4706;41.844;26.082;2023-12-04T06:22:15;101614.03;;;9.91;80.54
9335;BME280;4706;41.844;26.082;2023-12-04T06:24:44;101618.16;;;9.98;81.38
9335;BME280;4706;41.844;26.082;2023-12-04T06:27:20;101628.91;;;10.10;82.15
9335;BME280;4706;41.844;26.082;2023-12-04T06:29:47;101626.72;;;10.12;82.54
9335;BME280;4706;41.844;26.082;2023-12-04T06:32:13;101630.28;;;10.18;82.56
9335;BME280;4706;41.844;26.082;2023-12-04T06:34:39;101631.41;;;10.17;82.58
9335;BME280;4706;41.844;26.082;2023-12-04T06:37:12;101634.47;;;10.26;82.39
9335;BME280;4706;41.844;26.082;2023-12-04T06:39:39;101640.81;;;10.31;81.66
9335;BME280;4706;41.844;26.082;2023-12-04T06:42:08;101649.00;;;10.21;79.69
9335;BME280;4706;41.844;26.082;2023-12-04T06:44:34;101647.88;;;10.22;81.14
9335;BME280;4706;41.844;26.082;2023-12-04T06:47:00;101651.19;;;10.19;80.96
9335;BME280;4706;41.844;26.082;2023-12-04T06:49:32;101650.38;;;10.24;80.52
9335;BME280;4706;41.844;26.082;2023-12-04T06:51:59;101653.94;;;10.19;80.68
9335;BME280;4706;41.844;26.082;2023-12-04T06:54:25;101645.69;;;10.09;81.42
9335;BME280;4706;41.844;26.082;2023-12-04T06:56:51;101659.69;;;10.07;80.59
9335;BME280;4706;41.844;26.082;2023-12-04T06:59:19;101656.88;;;9.87;79.88
9335;BME280;4706;41.844;26.082;2023-12-04T07:01:45;101653.41;;;9.49;81.50
9335;BME280;4706;41.844;26.082;2023-12-04T07:04:11;101664.78;;;9.20;82.18
9335;BME280;4706;41.844;26.082;2023-12-04T07:06:37;101672.69;;;9.12;82.65
9335;BME280;4706;41.844;26.082;2023-12-04T07:09:03;101687.22;;;9.12;82.96
9335;BME280;4706;41.844;26.082;2023-12-04T07:11:29;101670.94;;;8.95;83.30
9335;BME280;4706;41.844;26.082;2023-12-04T07:13:55;101673.50;;;9.12;83.74
9335;BME280;4706;41.844;26.082;2023-12-04T07:16:20;101673.09;;;9.36;84.24
9335;BME280;4706;41.844;26.082;2023-12-04T07:18:46;101663.53;;;9.43;84.06
9335;BME280;4706;41.844;26.082;2023-12-04T07:21:12;101677.59;;;9.52;84.58
9335;BME280;4706;41.844;26.082;2023-12-04T07:23:37;101674.88;;;9.57;85.46
9335;BME280;4706;41.844;26.082;2023-12-04T07:26:03;101676.28;;;9.60;84.41
9335;BME280;4706;41.844;26.082;2023-12-04T07:28:29;101688.09;;;9.65;84.39
9335;BME280;4706;41.844;26.082;2023-12-04T07:30:56;101690.03;;;9.70;84.23
9335;BME280;4706;41.844;26.082;2023-12-04T07:33:21;101691.13;;;9.69;85.04
9335;BME280;4706;41.844;26.082;2023-12-04T07:35:47;101698.56;;;9.68;84.32
9335;BME280;4706;41.844;26.082;2023-12-04T07:38:13;101696.03;;;9.62;83.53
9335;BME280;4706;41.844;26.082;2023-12-04T07:40:39;101700.13;;;9.54;83.91
9335;BME280;4706;41.844;26.082;2023-12-04T07:43:04;101699.09;;;9.65;84.77
9335;BME280;4706;41.844;26.082;2023-12-04T07:45:30;101702.28;;;9.47;84.17
9335;BME280;4706;41.844;26.082;2023-12-04T07:47:55;101701.00;;;9.60;84.94
9335;BME280;4706;41.844;26.082;2023-12-04T07:50:21;101695.50;;;9.65;85.06
9335;BME280;4706;41.844;26.082;2023-12-04T07:52:46;101709.84;;;9.77;84.09
9335;BME280;4706;41.844;26.082;2023-12-04T07:55:12;101711.00;;;9.86;83.55
9335;BME280;4706;41.844;26.082;2023-12-04T07:57:38;101714.56;;;9.82;83.50
9335;BME280;4706;41.844;26.082;2023-12-04T08:00:04;101722.75;;;9.71;82.42
9335;BME280;4706;41.844;26.082;2023-12-04T08:02:29;101720.97;;;9.50;82.99
9335;BME280;4706;41.844;26.082;2023-12-04T08:04:56;101721.06;;;9.65;84.93
9335;BME280;4706;41.844;26.082;2023-12-04T08:07:21;101721.06;;;9.65;83.84
9335;BME280;4706;41.844;26.082;2023-12-04T08:09:47;101724.41;;;9.72;83.13
9335;BME280;4706;41.844;26.082;2023-12-04T08:12:12;101727.97;;;9.73;83.26
9335;BME280;4706;41.844;26.082;2023-12-04T08:14:38;101712.88;;;9.76;84.54
9335;BME280;4706;41.844;26.082;2023-12-04T08:17:03;101730.84;;;9.98;84.94
9335;BME280;4706;41.844;26.082;2023-12-04T08:19:29;101722.84;;;9.92;83.83
9335;BME280;4706;41.844;26.082;2023-12-04T08:21:54;101726.44;;;9.97;82.97
9335;BME280;4706;41.844;26.082;2023-12-04T08:24:20;101715.41;;;9.87;82.90
9335;BME280;4706;41.844;26.082;2023-12-04T08:26:46;101722.84;;;9.92;84.53
9335;BME280;4706;41.844;26.082;2023-12-04T08:29:12;101709.38;;;9.90;86.92
9335;BME280;4706;41.844;26.082;2023-12-04T08:31:38;101719.31;;;10.07;87.32
9335;BME280;4706;41.844;26.082;2023-12-04T08:34:03;101722.94;;;10.17;83.99
9335;BME280;4706;41.844;26.082;2023-12-04T08:36:29;101734.19;;;10.11;84.69
9335;BME280;4706;41.844;26.082;2023-12-04T08:38:55;101722.63;;;10.04;83.98
9335;BME280;4706;41.844;26.082;2023-12-04T08:41:20;101720.72;;;10.14;85.95
9335;BME280;4706;41.844;26.082;2023-12-04T08:43:46;101719.38;;;10.22;86.35
9335;BME280;4706;41.844;26.082;2023-12-04T08:46:13;101716.69;;;10.32;86.03
9335;BME280;4706;41.844;26.082;2023-12-04T08:48:40;101724.13;;;10.37;84.51
9335;BME280;4706;41.844;26.082;2023-12-04T08:51:06;101722.78;;;10.44;82.49
9335;BME280;4706;41.844;26.082;2023-12-04T08:53:34;101724.13;;;10.37;82.45
9335;BME280;4706;41.844;26.082;2023-12-04T08:55:59;101705.88;;;10.05;81.94
9335;BME280;4706;41.844;26.082;2023-12-04T08:58:25;101715.72;;;9.96;83.13
9335;BME280;4706;41.844;26.082;2023-12-04T09:00:50;101705.22;;;9.83;83.78
9335;BME280;4706;41.844;26.082;2023-12-04T09:03:16;101711.53;;;9.78;83.92
9335;BME280;4706;41.844;26.082;2023-12-04T09:05:42;101706.81;;;9.73;84.40
9335;BME280;4706;41.844;26.082;2023-12-04T09:08:07;101704.19;;;9.94;83.65
9335;BME280;4706;41.844;26.082;2023-12-04T09:10:33;101712.38;;;9.89;83.67
9335;BME280;4706;41.844;26.082;2023-12-04T09:12:59;101707.75;;;9.94;83.99
9335;BME280;4706;41.844;26.082;2023-12-04T09:15:24;101692.09;;;10.00;84.15
9335;BME280;4706;41.844;26.082;2023-12-04T09:17:50;101709.78;;;10.19;84.08
9335;BME280;4706;41.844;26.082;2023-12-04T09:20:15;101705.69;;;10.37;84.56
9335;BME280;4706;41.844;26.082;2023-12-04T09:22:41;101689.19;;;10.32;84.84
9335;BME280;4706;41.844;26.082;2023-12-04T09:25:07;101701.59;;;10.40;84.63
9335;BME280;4706;41.844;26.082;2023-12-04T09:27:34;101703.81;;;10.48;83.19
9335;BME280;4706;41.844;26.082;2023-12-04T09:30:00;101697.78;;;10.66;81.16
9335;BME280;4706;41.844;26.082;2023-12-04T09:32:25;101693.94;;;10.57;81.97
9335;BME280;4706;41.844;26.082;2023-12-04T09:34:51;101694.97;;;10.31;81.68
9335;BME280;4706;41.844;26.082;2023-12-04T09:37:16;101696.06;;;10.30;81.81
9335;BME280;4706;41.844;26.082;2023-12-04T09:39:42;101695.00;;;10.46;83.16
9335;BME280;4706;41.844;26.082;2023-12-04T09:42:08;101693.66;;;10.74;82.71
9335;BME280;4706;41.844;26.082;2023-12-04T09:44:36;101696.13;;;10.70;81.33
9335;BME280;4706;41.844;26.082;2023-12-04T09:47:03;101694.75;;;10.63;82.95
9335;BME280;4706;41.844;26.082;2023-12-04T09:49:31;101687.31;;;10.79;83.22
9335;BME280;4706;41.844;26.082;2023-12-04T09:52:01;101696.13;;;10.81;81.78
9335;BME280;4706;41.844;26.082;2023-12-04T09:54:30;101687.88;;;10.81;80.58
9335;BME280;4706;41.844;26.082;2023-12-04T09:56:56;101684.59;;;10.68;80.44
9335;BME280;4706;41.844;26.082;2023-12-04T09:59:24;101683.19;;;10.66;82.62
9335;BME280;4706;41.844;26.082;2023-12-04T10:01:51;101678.00;;;10.80;85.36
9335;BME280;4706;41.844;26.082;2023-12-04T10:04:17;101679.09;;;10.84;82.76
9335;BME280;4706;41.844;26.082;2023-12-04T10:06:43;101685.94;;;10.97;82.48
9335;BME280;4706;41.844;26.082;2023-12-04T10:09:10;101676.03;;;10.90;82.60
9335;BME280;4706;41.844;26.082;2023-12-04T10:11:41;101682.09;;;10.98;80.57
9335;BME280;4706;41.844;26.082;2023-12-04T10:14:18;101684.28;;;11.01;79.65
9335;BME280;4706;41.844;26.082;2023-12-04T10:16:45;101682.38;;;11.06;79.84
9335;BME280;4706;41.844;26.082;2023-12-04T10:19:29;101677.94;;;11.05;80.51
9335;BME280;4706;41.844;26.082;2023-12-04T10:21:57;101674.63;;;11.18;81.00
9335;BME280;4706;41.844;26.082;2023-12-04T10:24:33;101678.22;;;11.29;79.10
9335;BME280;4706;41.844;26.082;2023-12-04T10:27:08;101674.38;;;11.10;77.44
9335;BME280;4706;41.844;26.082;2023-12-04T10:29:45;101655.94;;;11.05;78.53
9335;BME280;4706;41.844;26.082;2023-12-04T10:32:12;101669.94;;;11.24;79.02
9335;BME280;4706;41.844;26.082;2023-12-04T10:34:41;101660.81;;;11.39;79.87
9335;BME280;4706;41.844;26.082;2023-12-04T10:37:09;101665.78;;;11.42;78.55
9335;BME280;4706;41.844;26.082;2023-12-04T10:39:48;101663.88;;;11.37;75.87
9335;BME280;4706;41.844;26.082;2023-12-04T10:44:52;101662.81;;;11.18;74.27
9335;BME280;4706;41.844;26.082;2023-12-04T10:47:20;101669.66;;;11.21;76.59
9335;BME280;4706;41.844;26.082;2023-12-04T10:49:49;101662.75;;;11.28;78.48
9335;BME280;4706;41.844;26.082;2023-12-04T10:52:16;101669.13;;;11.29;73.22
9335;BME280;4706;41.844;26.082;2023-12-04T10:54:41;101662.53;;;11.09;73.18
9335;BME280;4706;41.844;26.082;2023-12-04T10:57:08;101666.16;;;10.84;73.45
9335;BME280;4706;41.844;26.082;2023-12-04T10:59:38;101672.72;;;10.68;74.27
9335;BME280;4706;41.844;26.082;2023-12-04T11:02:05;101663.66;;;10.67;74.02
9335;BME280;4706;41.844;26.082;2023-12-04T11:04:35;101663.66;;;10.67;74.32
9335;BME280;4706;41.844;26.082;2023-12-04T11:07:02;101657.06;;;10.79;75.78
9335;BME280;4706;41.844;26.082;2023-12-04T11:09:31;101658.41;;;10.97;78.07
9335;BME280;4706;41.844;26.082;2023-12-04T11:12:03;101659.50;;;11.11;74.81
9335;BME280;4706;41.844;26.082;2023-12-04T11:14:44;101653.22;;;10.95;75.28
9335;BME280;4706;41.844;26.082;2023-12-04T11:17:14;101670.22;;;11.12;76.35
9335;BME280;4706;41.844;26.082;2023-12-04T11:22:15;101675.97;;;11.31;78.29
9335;BME280;4706;41.844;26.082;2023-12-04T11:24:47;101684.81;;;11.33;77.43
9335;BME280;4706;41.844;26.082;2023-12-04T11:27:16;101685.94;;;11.07;76.51
9335;BME280;4706;41.844;26.082;2023-12-04T11:29:42;101673.56;;;10.99;76.82
9335;BME280;4706;41.844;26.082;2023-12-04T11:32:13;101684.28;;;11.11;78.70
9335;BME280;4706;41.844;26.082;2023-12-04T11:34:47;101682.06;;;11.13;76.92
9335;BME280;4706;41.844;26.082;2023-12-04T11:37:14;101680.16;;;10.98;75.68
9335;BME280;4706;41.844;26.082;2023-12-04T11:39:39;101671.09;;;10.72;76.07
9335;BME280;4706;41.844;26.082;2023-12-04T11:42:06;101678.50;;;10.51;77.99
9335;BME280;4706;41.844;26.082;2023-12-04T11:44:32;101685.94;;;10.51;78.36
9335;BME280;4706;41.844;26.082;2023-12-04T11:47:07;101675.72;;;10.41;78.88
9335;BME280;4706;41.844;26.082;2023-12-04T11:49:33;101677.13;;;10.43;78.44
9335;BME280;4706;41.844;26.082;2023-12-04T11:52:05;101681.78;;;10.38;78.36
9335;BME280;4706;41.844;26.082;2023-12-04T11:55:00;101682.59;;;10.33;78.63
9335;BME280;4706;41.844;26.082;2023-12-04T11:57:40;101678.75;;;10.29;80.25
9335;BME280;4706;41.844;26.082;2023-12-04T12:05:20;101671.59;;;10.28;81.02
9335;BME280;4706;41.844;26.082;2023-12-04T12:07:46;101666.03;;;10.18;81.62
9335;BME280;4706;41.844;26.082;2023-12-04T12:10:12;101672.44;;;10.39;86.42
9335;BME280;4706;41.844;26.082;2023-12-04T12:12:42;101665.03;;;10.55;84.11
9335;BME280;4706;41.844;26.082;2023-12-04T12:15:12;101643.56;;;10.52;84.77
9335;BME280;4706;41.844;26.082;2023-12-04T12:17:40;101668.34;;;10.87;85.19
9335;BME280;4706;41.844;26.082;2023-12-04T12:20:07;101651.28;;;10.85;85.13
9335;BME280;4706;41.844;26.082;2023-12-04T12:22:33;101657.63;;;10.91;83.74
9335;BME280;4706;41.844;26.082;2023-12-04T12:24:59;101660.34;;;10.86;82.68
9335;BME280;4706;41.844;26.082;2023-12-04T12:27:25;101667.78;;;10.75;81.08
9335;BME280;4706;41.844;26.082;2023-12-04T12:29:51;101657.63;;;10.76;81.65
9335;BME280;4706;41.844;26.082;2023-12-04T12:32:17;101661.19;;;10.71;80.64
9335;BME280;4706;41.844;26.082;2023-12-04T12:34:42;101654.31;;;10.74;80.06
9335;BME280;4706;41.844;26.082;2023-12-04T12:37:08;101654.88;;;10.65;80.81
9335;BME280;4706;41.844;26.082;2023-12-04T12:39:34;101658.97;;;10.88;81.26
9335;BME280;4706;41.844;26.082;2023-12-04T12:42:00;101658.16;;;11.03;79.53
9335;BME280;4706;41.844;26.082;2023-12-04T12:44:27;101651.50;;;11.19;80.57
9335;BME280;4706;41.844;26.082;2023-12-04T12:46:53;101660.84;;;11.34;75.75
9335;BME280;4706;41.844;26.082;2023-12-04T12:49:19;101651.50;;;11.19;75.23
9335;BME280;4706;41.844;26.082;2023-12-04T12:51:47;101663.88;;;11.37;74.92
9335;BME280;4706;41.844;26.082;2023-12-04T12:54:13;101663.31;;;11.40;74.94
9335;BME280;4706;41.844;26.082;2023-12-04T12:56:39;101655.56;;;11.48;74.40
9335;BME280;4706;41.844;26.082;2023-12-04T12:59:05;101661.28;;;11.61;69.75
9335;BME280;4706;41.844;26.082;2023-12-04T13:01:32;101676.19;;;11.60;68.79
9335;BME280;4706;41.844;26.082;2023-12-04T13:03:58;101667.94;;;11.50;67.27
9335;BME280;4706;41.844;26.082;2023-12-04T13:06:24;101687.50;;;11.59;66.42
9335;BME280;4706;41.844;26.082;2023-12-04T13:08:49;101677.03;;;11.56;66.75
9335;BME280;4706;41.844;26.082;2023-12-04T13:11:15;101682.00;;;11.59;67.62